createdAt,value
2017-11-27T00:01:09.682Z,1019.39
2017-11-27T00:02:37.014Z,1019.41
2017-11-27T00:04:04.099Z,1019.39
2017-11-27T00:05:31.286Z,1019.42
2017-11-27T00:06:58.591Z,1019.43
2017-11-27T00:08:25.562Z,1019.39
2017-11-27T00:09:52.871Z,1019.41
2017-11-27T00:11:20.050Z,1019.44
2017-11-27T00:12:47.357Z,1019.47
2017-11-27T00:14:14.499Z,1019.48
2017-11-27T00:15:41.717Z,1019.47
2017-11-27T00:17:09.094Z,1019.47
2017-11-27T00:18:36.435Z,1019.49
2017-11-27T00:20:03.689Z,1019.48
2017-11-27T00:21:31.129Z,1019.48
2017-11-27T00:22:58.334Z,1019.50
2017-11-27T00:24:25.416Z,1019.47
2017-11-27T00:25:52.689Z,1019.47
2017-11-27T00:27:19.806Z,1019.48
2017-11-27T00:28:47.100Z,1019.49
2017-11-27T00:30:14.146Z,1019.42
2017-11-27T00:31:41.444Z,1019.43
2017-11-27T00:33:08.792Z,1019.41
2017-11-27T00:34:35.886Z,1019.42
2017-11-27T00:36:03.009Z,1019.41
2017-11-27T00:37:30.153Z,1019.46
2017-11-27T00:38:57.077Z,1019.44
2017-11-27T00:40:24.466Z,1019.45
2017-11-27T00:41:51.484Z,1019.46
2017-11-27T00:43:18.736Z,1019.51
2017-11-27T00:44:46.145Z,1019.51
2017-11-27T00:46:13.409Z,1019.54
2017-11-27T00:47:40.738Z,1019.55
2017-11-27T00:49:07.736Z,1019.57
2017-11-27T00:50:35.051Z,1019.60
2017-11-27T00:52:02.354Z,1019.62
2017-11-27T00:53:29.417Z,1019.62
2017-11-27T00:54:56.769Z,1019.59
2017-11-27T00:56:23.908Z,1019.63
2017-11-27T00:57:51.218Z,1019.61
2017-11-27T00:59:18.533Z,1019.64
2017-11-27T01:00:45.691Z,1019.61
2017-11-27T01:02:13.064Z,1019.60
2017-11-27T01:03:40.287Z,1019.57
2017-11-27T01:05:07.389Z,1019.63
2017-11-27T01:06:34.786Z,1019.64
2017-11-27T01:08:01.982Z,1019.64
2017-11-27T01:09:29.150Z,1019.66
2017-11-27T01:10:56.509Z,1019.63
2017-11-27T01:12:23.862Z,1019.59
2017-11-27T01:13:50.916Z,1019.62
2017-11-27T01:15:17.845Z,1019.65
2017-11-27T01:16:45.175Z,1019.66
2017-11-27T01:18:12.409Z,1019.64
2017-11-27T01:19:39.701Z,1019.66
2017-11-27T01:21:06.973Z,1019.65
2017-11-27T01:22:34.244Z,1019.68
2017-11-27T01:24:01.183Z,1019.63
2017-11-27T01:25:28.213Z,1019.65
2017-11-27T01:26:55.578Z,1019.63
2017-11-27T01:28:22.964Z,1019.63
2017-11-27T01:29:50.129Z,1019.66
2017-11-27T01:31:17.426Z,1019.66
2017-11-27T01:32:44.722Z,1019.65
2017-11-27T01:34:11.829Z,1019.67
2017-11-27T01:35:39.118Z,1019.68
2017-11-27T01:37:06.370Z,1019.71
2017-11-27T01:38:33.510Z,1019.72
2017-11-27T01:40:00.612Z,1019.70
2017-11-27T01:41:27.780Z,1019.69
2017-11-27T01:42:54.719Z,1019.71
2017-11-27T01:44:21.877Z,1019.71
2017-11-27T01:45:49.194Z,1019.68
2017-11-27T01:47:16.431Z,1019.67
2017-11-27T01:48:43.636Z,1019.69
2017-11-27T01:50:10.921Z,1019.70
2017-11-27T01:51:38.258Z,1019.72
2017-11-27T01:53:05.375Z,1019.68
2017-11-27T01:54:32.765Z,1019.73
2017-11-27T01:55:59.869Z,1019.74
2017-11-27T01:57:26.842Z,1019.79
2017-11-27T01:58:54.174Z,1019.73
2017-11-27T02:00:21.352Z,1019.74
2017-11-27T02:01:48.455Z,1019.77
2017-11-27T02:03:15.685Z,1019.79
2017-11-27T02:04:42.723Z,1019.81
2017-11-27T02:06:09.993Z,1019.78
2017-11-27T02:07:37.410Z,1019.76
2017-11-27T02:09:04.629Z,1019.82
2017-11-27T02:10:31.774Z,1019.83
2017-11-27T02:11:58.893Z,1019.80
2017-11-27T02:13:26.220Z,1019.77
2017-11-27T02:14:53.606Z,1019.76
2017-11-27T02:16:20.730Z,1019.73
2017-11-27T02:17:48.085Z,1019.76
2017-11-27T02:19:15.444Z,1019.79
2017-11-27T02:20:42.797Z,1019.79
2017-11-27T02:22:10.095Z,1019.80
2017-11-27T02:23:37.333Z,1019.82
2017-11-27T02:25:04.607Z,1019.81
2017-11-27T02:26:31.891Z,1019.81
2017-11-27T02:27:59.023Z,1019.84
2017-11-27T02:29:26.167Z,1019.87
2017-11-27T02:30:53.360Z,1019.89
2017-11-27T02:32:20.736Z,1019.92
2017-11-27T02:33:48.051Z,1019.91
2017-11-27T02:35:15.428Z,1019.92
2017-11-27T02:36:42.782Z,1019.94
2017-11-27T02:38:10.173Z,1019.96
2017-11-27T02:39:37.389Z,1019.95
2017-11-27T02:41:04.660Z,1019.92
2017-11-27T02:42:31.635Z,1019.91
2017-11-27T02:43:58.949Z,1019.91
2017-11-27T02:45:26.226Z,1019.90
2017-11-27T02:46:53.430Z,1019.88
2017-11-27T02:48:20.611Z,1019.88
2017-11-27T02:49:47.985Z,1019.84
2017-11-27T02:51:15.238Z,1019.86
2017-11-27T02:52:42.528Z,1019.87
2017-11-27T02:54:09.766Z,1019.88
2017-11-27T02:55:36.994Z,1019.88
2017-11-27T02:57:04.303Z,1019.87
2017-11-27T02:58:31.656Z,1019.88
2017-11-27T02:59:58.686Z,1019.84
2017-11-27T03:01:26.025Z,1019.81
2017-11-27T03:02:53.403Z,1019.78
2017-11-27T03:04:20.360Z,1019.77
2017-11-27T03:05:47.848Z,1019.77
2017-11-27T03:07:15.179Z,1019.78
2017-11-27T03:08:42.557Z,1019.78
2017-11-27T03:10:09.486Z,1019.74
2017-11-27T03:11:36.693Z,1019.72
2017-11-27T03:13:03.820Z,1019.73
2017-11-27T03:14:31.070Z,1019.72
2017-11-27T03:15:58.271Z,1019.75
2017-11-27T03:17:25.447Z,1019.70
2017-11-27T03:18:52.660Z,1019.66
2017-11-27T03:20:19.910Z,1019.66
2017-11-27T03:21:47.005Z,1019.64
2017-11-27T03:23:14.211Z,1019.71
2017-11-27T03:24:41.607Z,1019.71
2017-11-27T03:26:08.763Z,1019.73
2017-11-27T03:27:35.971Z,1019.73
2017-11-27T03:29:03.175Z,1019.77
2017-11-27T03:30:30.392Z,1019.73
2017-11-27T03:31:57.490Z,1019.71
2017-11-27T03:33:24.594Z,1019.70
2017-11-27T03:34:51.997Z,1019.72
2017-11-27T03:36:19.358Z,1019.72
2017-11-27T03:37:46.451Z,1019.67
2017-11-27T03:39:13.893Z,1019.65
2017-11-27T03:40:41.083Z,1019.67
2017-11-27T03:42:08.588Z,1019.71
2017-11-27T03:43:35.955Z,1019.70
2017-11-27T03:45:03.123Z,1019.70
2017-11-27T03:46:30.388Z,1019.72
2017-11-27T03:47:57.273Z,1019.72
2017-11-27T03:49:24.534Z,1019.71
2017-11-27T03:50:52.045Z,1019.70
2017-11-27T03:52:19.183Z,1019.74
2017-11-27T03:53:46.446Z,1019.71
2017-11-27T03:55:13.729Z,1019.70
2017-11-27T03:56:41.072Z,1019.69
2017-11-27T03:58:08.415Z,1019.67
2017-11-27T03:59:35.435Z,1019.65
2017-11-27T04:01:02.588Z,1019.65
2017-11-27T04:02:29.697Z,1019.71
2017-11-27T04:03:56.918Z,1019.72
2017-11-27T04:05:24.049Z,1019.71
2017-11-27T04:06:51.252Z,1019.75
2017-11-27T04:08:18.519Z,1019.77
2017-11-27T04:09:45.772Z,1019.78
2017-11-27T04:11:12.845Z,1019.80
2017-11-27T04:12:39.969Z,1019.78
2017-11-27T04:14:07.360Z,1019.76
2017-11-27T04:15:34.456Z,1019.76
2017-11-27T04:17:01.696Z,1019.73
2017-11-27T04:18:28.853Z,1019.74
2017-11-27T04:19:55.806Z,1019.67
2017-11-27T04:21:23.010Z,1019.66
2017-11-27T04:22:50.197Z,1019.65
2017-11-27T04:24:17.151Z,1019.67
2017-11-27T04:25:44.489Z,1019.63
2017-11-27T04:27:11.472Z,1019.62
2017-11-27T04:28:38.620Z,1019.63
2017-11-27T04:30:05.941Z,1019.60
2017-11-27T04:31:33.213Z,1019.59
2017-11-27T04:33:00.149Z,1019.58
2017-11-27T04:34:27.277Z,1019.56
2017-11-27T04:35:54.502Z,1019.57
2017-11-27T04:37:21.822Z,1019.53
2017-11-27T04:38:49.134Z,1019.52
2017-11-27T04:40:16.376Z,1019.54
2017-11-27T04:41:43.499Z,1019.53
2017-11-27T04:43:10.861Z,1019.53
2017-11-27T04:44:37.876Z,1019.53
2017-11-27T04:46:05.226Z,1019.52
2017-11-27T04:47:32.324Z,1019.56
2017-11-27T04:48:59.578Z,1019.59
2017-11-27T04:50:27.037Z,1019.54
2017-11-27T04:51:54.224Z,1019.56
2017-11-27T04:53:21.320Z,1019.60
2017-11-27T04:54:48.578Z,1019.56
2017-11-27T04:56:15.933Z,1019.57
2017-11-27T04:57:43.194Z,1019.62
2017-11-27T04:59:10.400Z,1019.61
2017-11-27T05:00:37.777Z,1019.57
2017-11-27T05:02:04.932Z,1019.60
2017-11-27T05:03:32.202Z,1019.60
2017-11-27T05:04:59.436Z,1019.60
2017-11-27T05:06:26.713Z,1019.61
2017-11-27T05:07:53.956Z,1019.60
2017-11-27T05:09:21.153Z,1019.58
2017-11-27T05:10:48.675Z,1019.60
2017-11-27T05:12:15.940Z,1019.58
2017-11-27T05:13:43.246Z,1019.54
2017-11-27T05:15:10.744Z,1019.52
2017-11-27T05:16:37.996Z,1019.51
2017-11-27T05:18:05.223Z,1019.53
2017-11-27T05:19:32.305Z,1019.49
2017-11-27T05:20:59.456Z,1019.56
2017-11-27T05:22:26.502Z,1019.54
2017-11-27T05:23:53.869Z,1019.50
2017-11-27T05:25:21.201Z,1019.50
2017-11-27T05:26:48.420Z,1019.51
2017-11-27T05:28:15.637Z,1019.51
2017-11-27T05:29:42.786Z,1019.51
2017-11-27T05:31:10.030Z,1019.51
2017-11-27T05:32:37.099Z,1019.50
2017-11-27T05:34:03.914Z,1019.49
2017-11-27T05:35:31.181Z,1019.52
2017-11-27T05:36:58.395Z,1019.55
2017-11-27T05:38:25.640Z,1019.52
2017-11-27T05:39:52.530Z,1019.50
2017-11-27T05:41:22.820Z,1019.49
2017-11-27T05:42:46.987Z,1019.50
2017-11-27T05:44:13.904Z,1019.54
2017-11-27T05:45:40.928Z,1019.54
2017-11-27T05:47:08.211Z,1019.54
2017-11-27T05:48:35.365Z,1019.50
2017-11-27T05:50:02.749Z,1019.48
2017-11-27T05:51:29.851Z,1019.49
2017-11-27T05:52:57.186Z,1019.49
2017-11-27T05:54:24.342Z,1019.48
2017-11-27T05:55:51.730Z,1019.45
2017-11-27T05:57:19.025Z,1019.44
2017-11-27T05:58:46.343Z,1019.44
2017-11-27T06:00:13.512Z,1019.42
2017-11-27T06:01:40.638Z,1019.47
2017-11-27T06:03:07.720Z,1019.42
2017-11-27T06:04:34.799Z,1019.42
2017-11-27T06:06:01.792Z,1019.43
2017-11-27T06:07:29.111Z,1019.41
2017-11-27T06:08:56.236Z,1019.41
2017-11-27T06:10:23.632Z,1019.39
2017-11-27T06:11:50.503Z,1019.41
2017-11-27T06:13:17.657Z,1019.40
2017-11-27T06:14:44.839Z,1019.38
2017-11-27T06:16:12.402Z,1019.40
2017-11-27T06:17:39.023Z,1019.47
2017-11-27T06:19:06.442Z,1019.42
2017-11-27T06:20:33.709Z,1019.44
2017-11-27T06:22:00.960Z,1019.45
2017-11-27T06:23:28.272Z,1019.43
2017-11-27T06:24:55.764Z,1019.46
2017-11-27T06:26:22.997Z,1019.47
2017-11-27T06:27:50.416Z,1019.49
2017-11-27T06:29:17.658Z,1019.52
2017-11-27T06:30:44.878Z,1019.56
2017-11-27T06:32:12.041Z,1019.54
2017-11-27T06:33:39.331Z,1019.54
2017-11-27T06:35:07.019Z,1019.50
2017-11-27T06:36:34.312Z,1019.51
2017-11-27T06:38:01.546Z,1019.52
2017-11-27T06:39:28.450Z,1019.58
2017-11-27T06:40:55.572Z,1019.57
2017-11-27T06:42:23.132Z,1019.58
2017-11-27T06:43:50.263Z,1019.58
2017-11-27T06:45:17.678Z,1019.62
2017-11-27T06:46:44.975Z,1019.55
2017-11-27T06:48:12.545Z,1019.52
2017-11-27T06:49:39.623Z,1019.52
2017-11-27T06:51:06.995Z,1019.52
2017-11-27T06:52:34.100Z,1019.48
2017-11-27T06:54:01.229Z,1019.50
2017-11-27T06:55:28.311Z,1019.50
2017-11-27T06:56:55.677Z,1019.53
2017-11-27T06:58:22.933Z,1019.52
2017-11-27T06:59:50.173Z,1019.55
2017-11-27T07:01:17.608Z,1019.53
2017-11-27T07:02:44.730Z,1019.49
2017-11-27T07:04:12.122Z,1019.48
2017-11-27T07:05:39.435Z,1019.49
2017-11-27T07:07:06.554Z,1019.47
2017-11-27T07:08:34.228Z,1019.45
2017-11-27T07:10:01.127Z,1019.46
2017-11-27T07:11:28.443Z,1019.46
2017-11-27T07:12:55.826Z,1019.43
2017-11-27T07:14:23.044Z,1019.42
2017-11-27T07:15:50.290Z,1019.39
2017-11-27T07:17:17.447Z,1019.33
2017-11-27T07:18:44.641Z,1019.31
2017-11-27T07:20:11.873Z,1019.36
2017-11-27T07:21:39.232Z,1019.33
2017-11-27T07:23:06.534Z,1019.28
2017-11-27T07:24:33.856Z,1019.28
2017-11-27T07:26:01.091Z,1019.24
2017-11-27T07:27:28.325Z,1019.20
2017-11-27T07:28:55.820Z,1019.24
2017-11-27T07:30:22.803Z,1019.18
2017-11-27T07:31:50.274Z,1019.15
2017-11-27T07:33:17.429Z,1019.16
2017-11-27T07:34:44.542Z,1019.16
2017-11-27T07:36:11.725Z,1019.16
2017-11-27T07:37:39.181Z,1019.19
2017-11-27T07:39:06.263Z,1019.20
2017-11-27T07:40:33.637Z,1019.17
2017-11-27T07:42:00.989Z,1019.19
2017-11-27T07:43:27.985Z,1019.14
2017-11-27T07:44:55.245Z,1019.14
2017-11-27T07:46:22.496Z,1019.10
2017-11-27T07:47:49.598Z,1019.11
2017-11-27T07:49:16.983Z,1019.10
2017-11-27T07:50:44.291Z,1019.13
2017-11-27T07:52:11.357Z,1019.13
2017-11-27T07:53:38.574Z,1019.11
2017-11-27T07:55:05.780Z,1019.08
2017-11-27T07:56:33.004Z,1019.09
2017-11-27T07:58:00.101Z,1019.02
2017-11-27T07:59:27.142Z,1018.97
2017-11-27T08:00:54.532Z,1018.98
2017-11-27T08:02:21.577Z,1018.95
2017-11-27T08:03:48.927Z,1018.95
2017-11-27T08:05:16.049Z,1018.95
2017-11-27T08:06:43.369Z,1018.93
2017-11-27T08:08:10.429Z,1018.94
2017-11-27T08:09:37.750Z,1018.92
2017-11-27T08:11:05.040Z,1018.89
2017-11-27T08:12:32.270Z,1018.89
2017-11-27T08:13:59.321Z,1018.90
2017-11-27T08:15:26.769Z,1018.91
2017-11-27T08:16:53.996Z,1018.86
2017-11-27T08:18:21.233Z,1018.85
2017-11-27T08:19:48.087Z,1018.82
2017-11-27T08:21:15.389Z,1018.78
2017-11-27T08:22:42.850Z,1018.79
2017-11-27T08:24:10.085Z,1018.80
2017-11-27T08:25:37.160Z,1018.79
2017-11-27T08:27:04.322Z,1018.80
2017-11-27T08:28:31.426Z,1018.79
2017-11-27T08:29:58.658Z,1018.76
2017-11-27T08:31:25.918Z,1018.76
2017-11-27T08:32:53.315Z,1018.76
2017-11-27T08:34:20.700Z,1018.76
2017-11-27T08:35:47.978Z,1018.77
2017-11-27T08:37:14.964Z,1018.76
2017-11-27T08:38:42.306Z,1018.73
2017-11-27T08:40:09.576Z,1018.72
2017-11-27T08:41:37.043Z,1018.71
2017-11-27T08:43:04.183Z,1018.72
2017-11-27T08:44:31.641Z,1018.69
2017-11-27T08:45:58.690Z,1018.63
2017-11-27T08:47:25.970Z,1018.64
2017-11-27T08:48:53.190Z,1018.65
2017-11-27T08:50:20.640Z,1018.66
2017-11-27T08:51:47.782Z,1018.58
2017-11-27T08:53:14.733Z,1018.59
2017-11-27T08:54:42.128Z,1018.60
2017-11-27T08:56:09.142Z,1018.60
2017-11-27T08:57:36.304Z,1018.56
2017-11-27T08:59:03.480Z,1018.52
2017-11-27T09:00:30.812Z,1018.47
2017-11-27T09:01:57.802Z,1018.40
2017-11-27T09:03:24.603Z,1018.37
2017-11-27T09:04:51.821Z,1018.35
2017-11-27T09:06:18.399Z,1018.27
2017-11-27T09:07:45.658Z,1018.25
2017-11-27T09:09:12.769Z,1018.25
2017-11-27T09:10:40.013Z,1018.25
2017-11-27T09:12:06.741Z,1018.24
2017-11-27T09:13:34.192Z,1018.20
2017-11-27T09:15:01.315Z,1018.16
2017-11-27T09:16:28.076Z,1018.16
2017-11-27T09:17:55.265Z,1018.14
2017-11-27T09:19:21.929Z,1018.09
2017-11-27T09:20:49.192Z,1018.02
2017-11-27T09:22:16.342Z,1018.02
2017-11-27T09:23:43.607Z,1018.04
2017-11-27T09:25:10.904Z,1017.92
2017-11-27T09:26:38.174Z,1017.89
2017-11-27T09:28:04.829Z,1017.88
2017-11-27T09:29:32.026Z,1017.84
2017-11-27T09:30:59.262Z,1017.80
2017-11-27T09:32:26.637Z,1017.83
2017-11-27T09:33:53.594Z,1017.85
2017-11-27T09:35:20.745Z,1017.85
2017-11-27T09:36:48.310Z,1017.84
2017-11-27T09:38:15.485Z,1017.81
2017-11-27T09:39:42.727Z,1017.76
2017-11-27T09:41:09.953Z,1017.72
2017-11-27T09:42:37.083Z,1017.71
2017-11-27T09:44:04.318Z,1017.70
2017-11-27T09:45:31.302Z,1017.70
2017-11-27T09:46:58.289Z,1017.65
2017-11-27T09:48:25.561Z,1017.62
2017-11-27T09:49:52.660Z,1017.60
2017-11-27T09:51:19.897Z,1017.56
2017-11-27T09:52:47.118Z,1017.55
2017-11-27T09:54:14.398Z,1017.50
2017-11-27T09:55:41.744Z,1017.47
2017-11-27T09:57:08.943Z,1017.49
2017-11-27T09:58:35.958Z,1017.49
2017-11-27T10:00:03.083Z,1017.44
2017-11-27T10:01:30.449Z,1017.44
2017-11-27T10:02:57.366Z,1017.36
2017-11-27T10:04:24.772Z,1017.33
2017-11-27T10:05:52.025Z,1017.26
2017-11-27T10:07:18.879Z,1017.28
2017-11-27T10:08:45.713Z,1017.27
2017-11-27T10:10:13.118Z,1017.23
2017-11-27T10:11:40.271Z,1017.20
2017-11-27T10:13:07.541Z,1017.23
2017-11-27T10:14:34.829Z,1017.17
2017-11-27T10:16:02.091Z,1017.15
2017-11-27T10:17:29.387Z,1017.10
2017-11-27T10:18:56.591Z,1017.09
2017-11-27T10:20:23.858Z,1017.08
2017-11-27T10:21:51.178Z,1017.07
2017-11-27T10:23:18.469Z,1017.05
2017-11-27T10:24:45.755Z,1017.04
2017-11-27T10:26:12.790Z,1016.99
2017-11-27T10:27:40.143Z,1016.95
2017-11-27T10:29:07.515Z,1016.91
2017-11-27T10:30:34.806Z,1016.87
2017-11-27T10:32:01.954Z,1016.79
2017-11-27T10:33:29.190Z,1016.74
2017-11-27T10:34:56.530Z,1016.71
2017-11-27T10:36:23.824Z,1016.72
2017-11-27T10:37:51.134Z,1016.64
2017-11-27T10:39:18.501Z,1016.62
2017-11-27T10:40:45.832Z,1016.57
2017-11-27T10:42:13.003Z,1016.52
2017-11-27T10:43:40.055Z,1016.50
2017-11-27T10:45:07.239Z,1016.46
2017-11-27T10:46:34.348Z,1016.43
2017-11-27T10:48:01.603Z,1016.42
2017-11-27T10:49:28.776Z,1016.39
2017-11-27T10:50:56.124Z,1016.33
2017-11-27T10:52:23.259Z,1016.26
2017-11-27T10:53:50.377Z,1016.22
2017-11-27T10:55:17.636Z,1016.18
2017-11-27T10:56:44.924Z,1016.10
2017-11-27T10:58:12.197Z,1016.06
2017-11-27T10:59:39.134Z,1016.02
2017-11-27T11:01:06.489Z,1015.97
2017-11-27T11:02:33.788Z,1015.94
2017-11-27T11:04:00.919Z,1015.88
2017-11-27T11:05:28.119Z,1015.84
2017-11-27T11:06:55.309Z,1015.82
2017-11-27T11:08:22.683Z,1015.77
2017-11-27T11:09:50.002Z,1015.73
2017-11-27T11:11:17.379Z,1015.68
2017-11-27T11:12:44.459Z,1015.66
2017-11-27T11:14:11.644Z,1015.66
2017-11-27T11:15:38.922Z,1015.62
2017-11-27T11:17:06.186Z,1015.56
2017-11-27T11:18:33.580Z,1015.50
2017-11-27T11:20:00.762Z,1015.50
2017-11-27T11:21:27.943Z,1015.49
2017-11-27T11:22:55.082Z,1015.48
2017-11-27T11:24:22.191Z,1015.45
2017-11-27T11:25:49.390Z,1015.42
2017-11-27T11:27:16.799Z,1015.32
2017-11-27T11:28:44.208Z,1015.28
2017-11-27T11:30:11.368Z,1015.30
2017-11-27T11:31:38.753Z,1015.25
2017-11-27T11:33:05.941Z,1015.21
2017-11-27T11:34:33.391Z,1015.18
2017-11-27T11:36:00.486Z,1015.14
2017-11-27T11:37:27.612Z,1015.11
2017-11-27T11:38:54.795Z,1015.10
2017-11-27T11:40:21.683Z,1015.06
2017-11-27T11:41:48.960Z,1015.00
2017-11-27T11:43:16.391Z,1014.91
2017-11-27T11:44:43.761Z,1014.89
2017-11-27T11:46:10.954Z,1014.89
2017-11-27T11:47:37.830Z,1014.88
2017-11-27T11:49:04.814Z,1014.79
2017-11-27T11:50:31.806Z,1014.74
2017-11-27T11:51:59.153Z,1014.68
2017-11-27T11:53:26.601Z,1014.68
2017-11-27T11:54:53.864Z,1014.67
2017-11-27T11:56:21.156Z,1014.65
2017-11-27T11:57:48.108Z,1014.60
2017-11-27T11:59:15.112Z,1014.57
2017-11-27T12:00:42.453Z,1014.53
2017-11-27T12:02:09.691Z,1014.47
2017-11-27T12:03:36.640Z,1014.48
2017-11-27T12:05:04.025Z,1014.45
2017-11-27T12:06:31.247Z,1014.40
2017-11-27T12:07:58.423Z,1014.37
2017-11-27T12:09:25.770Z,1014.36
2017-11-27T12:10:52.923Z,1014.30
2017-11-27T12:12:20.381Z,1014.29
2017-11-27T12:13:47.459Z,1014.19
2017-11-27T12:15:14.763Z,1014.18
2017-11-27T12:16:41.936Z,1014.14
2017-11-27T12:18:09.124Z,1014.10
2017-11-27T12:19:36.572Z,1014.12
2017-11-27T12:21:03.808Z,1014.05
2017-11-27T12:22:31.006Z,1013.99
2017-11-27T12:23:58.242Z,1013.95
2017-11-27T12:25:25.587Z,1013.93
2017-11-27T12:26:52.902Z,1013.88
2017-11-27T12:28:20.179Z,1013.81
2017-11-27T12:29:47.396Z,1013.77
2017-11-27T12:31:14.850Z,1013.78
2017-11-27T12:32:41.849Z,1013.75
2017-11-27T12:34:08.925Z,1013.69
2017-11-27T12:35:36.208Z,1013.67
2017-11-27T12:37:03.612Z,1013.62
2017-11-27T12:38:31.035Z,1013.61
2017-11-27T12:39:58.173Z,1013.55
2017-11-27T12:41:25.464Z,1013.53
2017-11-27T12:42:52.881Z,1013.51
2017-11-27T12:44:19.959Z,1013.51
2017-11-27T12:45:47.120Z,1013.39
2017-11-27T12:47:14.351Z,1013.38
2017-11-27T12:48:41.819Z,1013.37
2017-11-27T12:50:09.071Z,1013.31
2017-11-27T12:51:36.222Z,1013.22
2017-11-27T12:53:03.634Z,1013.21
2017-11-27T12:54:30.879Z,1013.16
2017-11-27T12:55:57.943Z,1013.11
2017-11-27T12:57:25.318Z,1013.10
2017-11-27T12:58:52.631Z,1013.01
2017-11-27T13:00:19.938Z,1013.02
2017-11-27T13:01:47.179Z,1012.97
2017-11-27T13:03:14.485Z,1012.97
2017-11-27T13:04:41.815Z,1012.94
2017-11-27T13:06:08.912Z,1012.87
2017-11-27T13:07:36.079Z,1012.82
2017-11-27T13:09:03.178Z,1012.80
2017-11-27T13:10:30.337Z,1012.77
2017-11-27T13:11:57.409Z,1012.77
2017-11-27T13:13:24.575Z,1012.73
2017-11-27T13:14:51.674Z,1012.73
2017-11-27T13:16:19.051Z,1012.68
2017-11-27T13:17:46.249Z,1012.63
2017-11-27T13:19:13.433Z,1012.63
2017-11-27T13:20:40.652Z,1012.62
2017-11-27T13:22:08.008Z,1012.61
2017-11-27T13:23:35.216Z,1012.57
2017-11-27T13:25:02.479Z,1012.46
2017-11-27T13:26:29.604Z,1012.45
2017-11-27T13:27:56.722Z,1012.44
2017-11-27T13:29:24.011Z,1012.42
2017-11-27T13:30:51.257Z,1012.32
2017-11-27T13:32:18.271Z,1012.28
2017-11-27T13:33:45.540Z,1012.27
2017-11-27T13:35:12.729Z,1012.26
2017-11-27T13:36:40.032Z,1012.22
2017-11-27T13:38:07.368Z,1012.23
2017-11-27T13:39:34.418Z,1012.24
2017-11-27T13:41:01.821Z,1012.22
2017-11-27T13:42:28.939Z,1012.15
2017-11-27T13:43:55.950Z,1012.15
2017-11-27T13:45:23.190Z,1012.13
2017-11-27T13:46:50.264Z,1012.03
2017-11-27T13:48:17.509Z,1012.06
2017-11-27T13:49:44.937Z,1012.02
2017-11-27T13:51:12.112Z,1012.03
2017-11-27T13:52:39.342Z,1011.98
2017-11-27T13:54:06.452Z,1011.93
2017-11-27T13:55:33.611Z,1011.92
2017-11-27T13:57:00.678Z,1011.96
2017-11-27T13:58:27.691Z,1011.87
2017-11-27T13:59:55.037Z,1011.87
2017-11-27T14:01:22.212Z,1011.80
2017-11-27T14:02:49.556Z,1011.79
2017-11-27T14:04:16.848Z,1011.75
2017-11-27T14:05:44.078Z,1011.74
2017-11-27T14:07:11.280Z,1011.68
2017-11-27T14:08:38.421Z,1011.64
2017-11-27T14:10:05.820Z,1011.58
2017-11-27T14:11:32.960Z,1011.55
2017-11-27T14:13:00.154Z,1011.52
2017-11-27T14:14:27.235Z,1011.51
2017-11-27T14:15:54.516Z,1011.46
2017-11-27T14:17:21.732Z,1011.45
2017-11-27T14:18:49.055Z,1011.45
2017-11-27T14:20:16.456Z,1011.45
2017-11-27T14:21:43.723Z,1011.39
2017-11-27T14:23:10.855Z,1011.34
2017-11-27T14:24:38.170Z,1011.38
2017-11-27T14:26:05.279Z,1011.35
2017-11-27T14:27:32.502Z,1011.31
2017-11-27T14:28:59.713Z,1011.29
2017-11-27T14:30:27.075Z,1011.32
2017-11-27T14:31:54.377Z,1011.22
2017-11-27T14:33:21.645Z,1011.17
2017-11-27T14:34:48.977Z,1011.11
2017-11-27T14:36:16.212Z,1011.11
2017-11-27T14:37:43.363Z,1011.10
2017-11-27T14:39:10.510Z,1011.07
2017-11-27T14:40:37.521Z,1011.07
2017-11-27T14:42:04.893Z,1011.00
2017-11-27T14:43:32.066Z,1010.93
2017-11-27T14:44:59.274Z,1010.92
2017-11-27T14:46:26.546Z,1010.90
2017-11-27T14:47:53.670Z,1010.81
2017-11-27T14:49:20.936Z,1010.75
2017-11-27T14:50:47.794Z,1010.76
2017-11-27T14:52:14.957Z,1010.63
2017-11-27T14:53:42.154Z,1010.62
2017-11-27T14:55:09.205Z,1010.64
2017-11-27T14:56:36.507Z,1010.56
2017-11-27T14:58:03.688Z,1010.59
2017-11-27T14:59:30.966Z,1010.52
2017-11-27T15:00:58.128Z,1010.43
2017-11-27T15:02:25.515Z,1010.41
2017-11-27T15:03:52.576Z,1010.42
2017-11-27T15:05:19.758Z,1010.35
2017-11-27T15:06:47.774Z,1010.32
2017-11-27T15:08:14.310Z,1010.31
2017-11-27T15:09:41.435Z,1010.26
2017-11-27T15:11:08.637Z,1010.24
2017-11-27T15:12:35.942Z,1010.22
2017-11-27T15:14:03.016Z,1010.22
2017-11-27T15:15:30.209Z,1010.18
2017-11-27T15:16:57.058Z,1010.18
2017-11-27T15:18:24.381Z,1010.21
2017-11-27T15:19:51.720Z,1010.12
2017-11-27T15:21:19.041Z,1010.17
2017-11-27T15:22:46.068Z,1010.11
2017-11-27T15:24:13.324Z,1010.03
2017-11-27T15:25:40.572Z,1009.97
2017-11-27T15:27:07.807Z,1010.00
2017-11-27T15:28:35.142Z,1010.01
2017-11-27T15:30:02.311Z,1009.98
2017-11-27T15:31:29.568Z,1009.99
2017-11-27T15:32:56.770Z,1009.99
2017-11-27T15:34:24.096Z,1009.94
2017-11-27T15:35:51.425Z,1009.93
2017-11-27T15:37:18.584Z,1009.85
2017-11-27T15:38:45.850Z,1009.92
2017-11-27T15:40:12.951Z,1009.86
2017-11-27T15:41:40.028Z,1009.80
2017-11-27T15:43:07.241Z,1009.78
2017-11-27T15:44:34.562Z,1009.79
2017-11-27T15:46:01.737Z,1009.79
2017-11-27T15:47:28.986Z,1009.76
2017-11-27T15:48:56.269Z,1009.78
2017-11-27T15:50:23.551Z,1009.74
2017-11-27T15:51:50.640Z,1009.69
2017-11-27T15:53:17.833Z,1009.71
2017-11-27T15:54:45.128Z,1009.73
2017-11-27T15:56:12.314Z,1009.65
2017-11-27T15:57:39.619Z,1009.65
2017-11-27T15:59:06.757Z,1009.63
2017-11-27T16:00:33.764Z,1009.63
2017-11-27T16:02:00.747Z,1009.61
2017-11-27T16:03:28.010Z,1009.59
2017-11-27T16:04:55.176Z,1009.53
2017-11-27T16:06:22.533Z,1009.54
2017-11-27T16:07:49.643Z,1009.46
2017-11-27T16:09:16.896Z,1009.46
2017-11-27T16:10:44.219Z,1009.45
2017-11-27T16:12:11.635Z,1009.44
2017-11-27T16:13:38.737Z,1009.39
2017-11-27T16:15:05.980Z,1009.39
2017-11-27T16:16:33.180Z,1009.38
2017-11-27T16:18:00.523Z,1009.34
2017-11-27T16:19:27.351Z,1009.32
2017-11-27T16:20:54.611Z,1009.29
2017-11-27T16:22:21.973Z,1009.27
2017-11-27T16:23:49.345Z,1009.23
2017-11-27T16:25:16.677Z,1009.19
2017-11-27T16:26:43.765Z,1009.24
2017-11-27T16:28:10.834Z,1009.17
2017-11-27T16:29:38.063Z,1009.13
2017-11-27T16:31:05.300Z,1009.13
2017-11-27T16:32:32.541Z,1009.07
2017-11-27T16:33:59.811Z,1009.03
2017-11-27T16:35:26.949Z,1009.02
2017-11-27T16:36:54.183Z,1008.98
2017-11-27T16:38:21.455Z,1008.95
2017-11-27T16:39:48.655Z,1008.91
2017-11-27T16:41:15.900Z,1008.91
2017-11-27T16:42:42.705Z,1008.89
2017-11-27T16:44:09.835Z,1008.88
2017-11-27T16:45:37.155Z,1008.84
2017-11-27T16:47:04.342Z,1008.77
2017-11-27T16:48:31.545Z,1008.82
2017-11-27T16:49:58.616Z,1008.74
2017-11-27T16:51:25.840Z,1008.73
2017-11-27T16:52:53.019Z,1008.72
2017-11-27T16:54:20.230Z,1008.70
2017-11-27T16:55:47.465Z,1008.66
2017-11-27T16:57:14.868Z,1008.64
2017-11-27T16:58:42.022Z,1008.64
2017-11-27T17:00:09.138Z,1008.63
2017-11-27T17:01:36.212Z,1008.61
2017-11-27T17:03:03.640Z,1008.55
2017-11-27T17:04:30.786Z,1008.57
2017-11-27T17:05:57.890Z,1008.51
2017-11-27T17:07:26.071Z,1008.54
2017-11-27T17:08:52.147Z,1008.53
2017-11-27T17:10:19.312Z,1008.42
2017-11-27T17:11:46.474Z,1008.40
2017-11-27T17:13:13.494Z,1008.44
2017-11-27T17:14:40.785Z,1008.46
2017-11-27T17:16:08.004Z,1008.40
2017-11-27T17:17:35.070Z,1008.43
2017-11-27T17:19:02.176Z,1008.34
2017-11-27T17:20:29.130Z,1008.33
2017-11-27T17:21:56.225Z,1008.32
2017-11-27T17:23:23.357Z,1008.26
2017-11-27T17:24:50.411Z,1008.23
2017-11-27T17:26:17.619Z,1008.26
2017-11-27T17:27:44.918Z,1008.28
2017-11-27T17:29:11.772Z,1008.29
2017-11-27T17:30:38.904Z,1008.27
2017-11-27T17:32:06.154Z,1008.27
2017-11-27T17:33:33.264Z,1008.28
2017-11-27T17:35:00.485Z,1008.19